St Cloud Regional Airport
KSTC : now visible

Airfield :











YOU CAN JOIN US ON...

 
LOGIN :

Register | Disclaimer

   EN    FR    IT 

 









Legend :    VFR   Marginal VFR   IFR   Intensive IFR   Very Intensive IFR
Visi :
Ceiling :
>= 8 km
>= 3000ft
5 to 8 km
1000 to 3000 ft
1500m to 5 km
500 to 1000 ft
800 to 1500m
200 to 500 ft
< 800m
< 200 ft
Symbols :   Thunderstorms  Fog  Heavy snow  Heavy precipitations  Wind > 20 kt







- Airport Elevation : 1031 ft
- IATA code : STC


KSTC - St Cloud Regional

CURRENT METAR :
  • 220624Z AUTO 08014G24KT 3SM -RA BR BKN008 OVC016 08/07 A2968 RMK AO2 P0003 T00780067

EXPIRED METARs :
  • 220615Z AUTO 08014G24KT 2 1/2SM -RA BR BKN009 OVC014 08/07 A2968 RMK AO2 PRESFR P0003 T00780067
  • 220553Z AUTO 08013G21KT 4SM RA BR BKN009 OVC013 07/07 A2971 RMK AO2 PK WND 05028/0503 SLP071 P0010 60073 T00720067 10100 20072 401670056 56037
  • 220539Z AUTO 08012G23KT 4SM -RA BR BKN010 BKN013 OVC018 07/07 A2972 RMK AO2 PK WND 05028/0503 P0008 T00720067
  • 220514Z AUTO 08010G22KT 4SM -RA BR FEW009 BKN015 OVC022 08/06 A2973 RMK AO2 PK WND 05028/0503 P0004 T00780061
  • 220501Z AUTO 09012G22KT 3SM -RA BR FEW008 BKN014 OVC020 07/06 A2974 RMK AO2 P0002 T00720061
  • 220453Z AUTO 09014G24KT 3SM RA BR BKN014 OVC022 08/06 A2976 RMK AO2 PK WND 06037/0402 SLP087 P0021 T00780061
  • 220405Z AUTO 09016G37KT 4SM RA BR SCT016 BKN024 OVC043 08/06 A2975 RMK AO2 PK WND 06037/0402 P0005 T00780061
  • 220353Z AUTO 06018G34KT 5SM RA BR FEW016 SCT022 OVC043 08/06 A2972 RMK AO2 PK WND 05038/0339 PRESFR SLP076 P0017 T00780061
  • 220332Z AUTO 07021G37KT 6SM RA BR FEW018 SCT025 OVC041 08/06 A2975 RMK AO2 PK WND 07037/0326 PRESFR P0010 T00780061

TAF KSTC
Valid from the 22 at 06:00 until the 23 at 06:00 UTC


220521Z 2206/2306 10018G26KT 4SM -RA BR BKN015 OVC035
FM220700 10020G28KT 4SM -RA BR SCT007 OVC015
FM221000 10017G25KT 6SM -RA BR OVC007
FM221800 14012G19KT 6SM -SHRA BR OVC008
FM222100 17012KT P6SM OVC015
FM230300 23009KT P6SM BKN012
KZMP FIR / North America



MET'MAP, your aeronautical weather chart ! - Copyright ORBIFLY December 2007 - Disclaimer

ORBIFLY MET'MAP TEAM :

Programming & Development : Alexandra Zaïnal
Concept & Development : Baudouin d'Aumeries
Co-Development & Prog : Marc-Olivier Méhu
Technical & hardware support : Manuel Goepfert

Contact : metmap@orbifly.com




SOURCES & CREDITS :

   NOAA       Earth
Advisory